createdAt,value
2018-06-27T00:01:57.934Z,16.00
2018-06-27T00:04:26.404Z,16.00
2018-06-27T00:09:23.033Z,15.90
2018-06-27T00:11:51.507Z,15.80
2018-06-27T00:14:20.028Z,15.80
2018-06-27T00:19:16.709Z,15.80
2018-06-27T00:21:45.236Z,15.80
2018-06-27T00:24:13.725Z,15.80
2018-06-27T00:26:42.171Z,15.80
2018-06-27T00:29:10.692Z,15.70
2018-06-27T00:31:39.199Z,15.80
2018-06-27T00:36:35.831Z,15.70
2018-06-27T00:39:06.726Z,15.70
2018-06-27T00:42:38.572Z,15.70
2018-06-27T00:45:07.943Z,15.70
2018-06-27T00:47:36.400Z,15.70
2018-06-27T00:50:04.991Z,15.70
2018-06-27T00:52:33.471Z,15.60
2018-06-27T00:55:01.964Z,15.60
2018-06-27T00:57:30.440Z,15.60
2018-06-27T00:59:58.944Z,15.50
2018-06-27T01:02:27.512Z,15.50
2018-06-27T01:04:55.991Z,15.50
2018-06-27T01:07:24.478Z,15.50
2018-06-27T01:10:56.158Z,15.50
2018-06-27T01:15:52.775Z,15.40
2018-06-27T01:18:21.267Z,15.30
2018-06-27T01:20:49.795Z,15.30
2018-06-27T01:23:18.369Z,15.30
2018-06-27T01:33:11.333Z,15.20
2018-06-27T01:35:39.815Z,15.10
2018-06-27T01:38:08.320Z,15.10
2018-06-27T01:40:36.746Z,15.00
2018-06-27T01:43:05.367Z,15.00
2018-06-27T01:45:34.372Z,15.00
2018-06-27T01:48:03.140Z,14.90
2018-06-27T01:50:31.639Z,14.90
2018-06-27T01:53:00.120Z,14.90
2018-06-27T01:55:28.619Z,14.90
2018-06-27T01:57:57.055Z,14.90
2018-06-27T02:00:25.564Z,14.80
2018-06-27T02:02:54.029Z,14.80
2018-06-27T02:05:22.535Z,14.80
2018-06-27T02:07:50.984Z,14.70
2018-06-27T02:10:19.479Z,14.70
2018-06-27T02:12:47.948Z,14.70
2018-06-27T02:15:16.475Z,14.70
2018-06-27T02:22:41.571Z,14.70
2018-06-27T02:25:10.067Z,14.70
2018-06-27T02:27:38.591Z,14.60
2018-06-27T02:30:07.351Z,14.60
2018-06-27T02:32:36.139Z,14.60
2018-06-27T02:35:05.008Z,14.60
2018-06-27T02:37:33.520Z,14.60
2018-06-27T02:40:01.971Z,14.50
2018-06-27T02:42:30.500Z,14.50
2018-06-27T02:47:27.334Z,14.50
2018-06-27T02:49:56.076Z,14.40
2018-06-27T02:52:24.602Z,14.40
2018-06-27T02:54:53.088Z,14.30
2018-06-27T02:57:21.567Z,14.30
2018-06-27T02:59:50.035Z,14.30
2018-06-27T03:02:18.519Z,14.30
2018-06-27T03:04:47.011Z,14.30
2018-06-27T03:07:15.479Z,14.30
2018-06-27T03:09:43.961Z,14.30
2018-06-27T03:12:12.453Z,14.30
2018-06-27T03:14:40.964Z,14.30
2018-06-27T03:19:37.716Z,14.20
2018-06-27T03:24:34.352Z,14.30
2018-06-27T03:27:02.815Z,14.30
2018-06-27T03:29:31.327Z,14.40
2018-06-27T03:31:59.839Z,14.40
2018-06-27T03:36:56.438Z,14.50
2018-06-27T03:39:25.062Z,14.50
2018-06-27T03:44:21.775Z,14.60
2018-06-27T03:46:50.416Z,14.60
2018-06-27T03:49:19.224Z,14.60
2018-06-27T03:51:47.796Z,14.60
2018-06-27T03:54:16.745Z,14.60
2018-06-27T03:56:45.756Z,14.60
2018-06-27T04:01:42.574Z,14.60
2018-06-27T04:04:11.110Z,14.60
2018-06-27T09:47:05.374Z,23.80
2018-06-27T09:49:33.848Z,23.90
2018-06-27T09:52:02.357Z,24.00
2018-06-27T09:54:30.824Z,24.10
2018-06-27T09:56:59.396Z,24.00
2018-06-27T09:59:27.745Z,24.20
2018-06-27T10:01:56.166Z,24.30
2018-06-27T10:04:24.547Z,24.30
2018-06-27T10:06:52.952Z,24.30
2018-06-27T10:09:21.360Z,24.40
2018-06-27T10:11:49.763Z,24.30
2018-06-27T10:16:46.262Z,24.30
2018-06-27T10:19:14.920Z,24.40
2018-06-27T10:21:43.420Z,24.60
2018-06-27T10:24:12.008Z,24.60
2018-06-27T10:26:40.956Z,24.60
2018-06-27T10:29:09.470Z,24.60
2018-06-27T10:31:37.983Z,24.80
2018-06-27T10:34:06.404Z,24.80
2018-06-27T10:39:03.060Z,25.00
2018-06-27T10:46:27.652Z,25.20
2018-06-27T10:48:56.064Z,25.20
2018-06-27T10:51:24.556Z,25.10
2018-06-27T10:53:52.956Z,25.20
2018-06-27T10:56:21.417Z,25.40
2018-06-27T10:58:49.816Z,25.50
2018-06-27T11:01:18.297Z,25.50
2018-06-27T11:03:46.725Z,25.70
2018-06-27T11:06:15.132Z,25.70
2018-06-27T11:11:11.637Z,25.80
2018-06-27T11:13:40.063Z,26.00
2018-06-27T11:18:36.572Z,26.10
2018-06-27T11:21:04.995Z,26.00
2018-06-27T11:23:33.428Z,26.10
2018-06-27T11:27:26.324Z,26.20
2018-06-27T11:29:54.751Z,26.30
2018-06-27T11:32:23.410Z,26.50
2018-06-27T11:34:51.811Z,26.80
2018-06-27T11:37:20.351Z,26.90
2018-06-27T11:44:45.122Z,26.90
2018-06-27T11:47:13.594Z,26.90
2018-06-27T11:49:41.982Z,26.80
2018-06-27T11:52:10.403Z,26.90
2018-06-27T11:54:38.868Z,27.00
2018-06-27T11:57:07.364Z,27.10
2018-06-27T11:59:35.796Z,27.30
2018-06-27T12:02:04.237Z,27.20
2018-06-27T12:04:32.812Z,27.30
2018-06-27T12:07:01.417Z,27.40
2018-06-27T12:09:29.852Z,27.30
2018-06-27T12:11:58.244Z,27.10
2018-06-27T12:14:26.652Z,27.20
2018-06-27T12:16:55.158Z,27.70
2018-06-27T12:19:23.536Z,28.10
2018-06-27T12:24:20.158Z,28.50
2018-06-27T12:26:48.683Z,28.20
2018-06-27T12:29:17.101Z,27.80
2018-06-27T12:31:45.562Z,28.00
2018-06-27T12:34:14.121Z,28.50
2018-06-27T12:36:42.536Z,28.90
2018-06-27T12:39:11.128Z,29.20
2018-06-27T12:41:39.673Z,29.50
2018-06-27T12:44:08.164Z,29.50
2018-06-27T12:46:37.132Z,29.20
2018-06-27T12:51:33.923Z,29.80
2018-06-27T12:54:02.538Z,29.50
2018-06-27T12:56:31.120Z,29.40
2018-06-27T12:58:59.604Z,29.70
2018-06-27T13:01:28.095Z,29.40
2018-06-27T13:03:56.573Z,29.20
2018-06-27T13:07:49.160Z,29.20
2018-06-27T13:12:45.723Z,30.40
2018-06-27T13:15:14.156Z,30.50
2018-06-27T13:17:42.591Z,30.80
2018-06-27T13:20:11.024Z,30.80
2018-06-27T13:22:39.495Z,29.70
2018-06-27T13:25:07.945Z,29.60
2018-06-27T13:27:36.387Z,30.20
2018-06-27T13:32:33.689Z,31.50
2018-06-27T13:35:02.157Z,32.20
2018-06-27T13:37:30.580Z,32.00
2018-06-27T13:39:59.013Z,31.30
2018-06-27T13:44:55.754Z,31.40
2018-06-27T13:47:24.771Z,31.50
2018-06-27T13:52:21.352Z,31.00
2018-06-27T13:54:54.860Z,31.00
2018-06-27T13:57:24.516Z,31.10
2018-06-27T13:59:53.355Z,31.40
2018-06-27T14:02:21.895Z,31.90
2018-06-27T14:04:50.758Z,32.10
2018-06-27T14:07:19.614Z,32.40
2018-06-27T14:09:48.188Z,32.00
2018-06-27T14:12:16.854Z,31.80
2018-06-27T14:17:13.654Z,32.40
2018-06-27T14:19:42.184Z,32.70
2018-06-27T14:22:10.696Z,32.90
2018-06-27T14:32:04.592Z,31.00
2018-06-27T14:34:33.102Z,30.60
2018-06-27T14:37:01.588Z,29.80
2018-06-27T14:39:30.181Z,29.10
2018-06-27T14:41:58.852Z,28.80
2018-06-27T14:44:27.545Z,28.90
2018-06-27T14:46:56.151Z,28.80
2018-06-27T14:49:24.753Z,28.80
2018-06-27T14:51:53.254Z,28.70
2018-06-27T14:54:21.719Z,28.50
2018-06-27T14:56:50.207Z,28.40
2018-06-27T14:59:18.763Z,28.20
2018-06-27T15:01:47.267Z,28.10
2018-06-27T15:04:15.795Z,28.20
2018-06-27T15:09:12.528Z,28.10
2018-06-27T15:11:41.103Z,28.00
2018-06-27T15:14:09.618Z,27.90
2018-06-27T15:19:06.333Z,27.80
2018-06-27T15:21:34.864Z,27.80
2018-06-27T15:24:03.458Z,27.60
2018-06-27T15:26:31.933Z,27.70
2018-06-27T15:29:00.361Z,27.60
2018-06-27T15:31:28.871Z,27.60
2018-06-27T15:33:57.358Z,27.60
2018-06-27T15:36:25.900Z,27.50
2018-06-27T15:38:55.612Z,27.40
2018-06-27T15:41:24.251Z,27.50
2018-06-27T15:43:52.845Z,27.50
2018-06-27T15:46:21.482Z,27.50
2018-06-27T15:48:50.048Z,27.50
2018-06-27T15:51:18.689Z,27.40
2018-06-27T15:56:15.501Z,27.30
2018-06-27T15:58:44.082Z,27.20
2018-06-27T16:01:12.592Z,27.30
2018-06-27T16:03:41.535Z,27.30
2018-06-27T16:06:10.097Z,27.40
2018-06-27T16:08:38.651Z,27.40
2018-06-27T16:11:07.180Z,27.40
2018-06-27T16:13:35.945Z,27.30
2018-06-27T16:18:32.729Z,27.20
2018-06-27T16:21:01.153Z,27.20
2018-06-27T16:23:29.635Z,27.10
2018-06-27T16:25:58.136Z,27.10
2018-06-27T16:28:26.605Z,27.10
2018-06-27T16:30:55.144Z,27.00
2018-06-27T16:33:23.789Z,26.90
2018-06-27T16:35:52.266Z,26.80
2018-06-27T16:38:20.898Z,26.70
2018-06-27T16:40:49.475Z,26.70
2018-06-27T16:43:18.062Z,26.70
2018-06-27T16:45:46.489Z,26.70
2018-06-27T16:48:14.984Z,26.70
2018-06-27T16:50:43.562Z,26.70
2018-06-27T16:53:11.990Z,26.70
2018-06-27T16:55:40.591Z,26.70
2018-06-27T16:58:09.184Z,26.60
2018-06-27T17:00:37.846Z,26.60
2018-06-27T17:03:06.515Z,26.60
2018-06-27T17:05:34.963Z,26.70
2018-06-27T17:09:27.737Z,26.70
2018-06-27T17:14:24.356Z,26.70
2018-06-27T17:16:52.892Z,26.60
2018-06-27T17:19:21.361Z,26.60
2018-06-27T17:21:49.831Z,26.50
2018-06-27T17:24:18.276Z,26.50
2018-06-27T17:26:47.889Z,26.30
2018-06-27T17:29:16.380Z,26.30
2018-06-27T17:31:44.981Z,26.30
2018-06-27T17:34:13.464Z,26.30
2018-06-27T17:36:41.968Z,26.20
2018-06-27T17:41:39.732Z,26.10
2018-06-27T17:44:08.604Z,26.00
2018-06-27T17:46:37.125Z,26.00
2018-06-27T17:51:34.087Z,25.90
2018-06-27T17:58:58.924Z,25.80
2018-06-27T18:01:27.408Z,25.90
2018-06-27T18:06:24.166Z,25.90
2018-06-27T18:08:52.737Z,25.80
2018-06-27T18:11:22.407Z,25.80
2018-06-27T18:13:51.020Z,25.70
2018-06-27T18:16:19.478Z,25.60
2018-06-27T18:18:48.091Z,25.60
2018-06-27T18:21:16.536Z,25.60
2018-06-27T18:23:45.189Z,25.60
2018-06-27T18:26:14.102Z,25.50
2018-06-27T18:28:42.660Z,25.50
2018-06-27T18:31:11.111Z,25.40
2018-06-27T18:33:39.676Z,25.40
2018-06-27T18:36:08.231Z,25.30
2018-06-27T18:38:36.763Z,25.20
2018-06-27T18:41:05.252Z,25.20
2018-06-27T18:46:01.980Z,25.10
2018-06-27T18:48:30.551Z,25.00
2018-06-27T18:50:59.048Z,25.00
2018-06-27T18:53:27.676Z,24.90
2018-06-27T18:55:56.212Z,24.90
2018-06-27T18:58:24.864Z,24.80
2018-06-27T19:00:53.523Z,24.80
2018-06-27T19:03:22.189Z,24.70
2018-06-27T19:05:50.789Z,24.70
2018-06-27T19:08:19.337Z,24.60
2018-06-27T19:10:48.016Z,24.60
2018-06-27T19:13:16.664Z,24.50
2018-06-27T19:15:45.333Z,24.50
2018-06-27T19:20:42.218Z,24.40
2018-06-27T19:23:10.884Z,24.30
2018-06-27T19:28:07.608Z,24.20
2018-06-27T19:30:36.112Z,24.10
2018-06-27T19:33:04.908Z,24.10
2018-06-27T19:38:01.816Z,24.00
2018-06-27T19:40:30.449Z,23.90
2018-06-27T19:42:58.902Z,23.90
2018-06-27T19:45:27.384Z,23.80
2018-06-27T19:47:55.872Z,23.80
2018-06-27T19:50:24.317Z,23.70
2018-06-27T19:52:52.841Z,23.60
2018-06-27T19:55:21.392Z,23.60
2018-06-27T19:57:50.000Z,23.50
2018-06-27T20:00:18.680Z,23.50
2018-06-27T20:02:47.220Z,23.40
2018-06-27T20:05:15.715Z,23.30
2018-06-27T20:07:44.354Z,23.30
2018-06-27T20:10:12.790Z,23.20
2018-06-27T20:12:41.397Z,23.20
2018-06-27T20:15:10.062Z,23.10
2018-06-27T20:17:38.488Z,23.10
2018-06-27T20:20:08.301Z,23.00
2018-06-27T20:24:01.242Z,23.00
2018-06-27T20:26:29.758Z,22.90
2018-06-27T20:28:58.340Z,22.80
2018-06-27T20:31:26.996Z,22.80
2018-06-27T20:33:55.706Z,22.70
2018-06-27T20:36:24.255Z,22.70
2018-06-27T20:38:52.776Z,22.60
2018-06-27T20:41:21.244Z,22.60
2018-06-27T20:43:49.718Z,22.50
2018-06-27T20:46:18.188Z,22.50
2018-06-27T20:48:46.703Z,22.40
2018-06-27T20:53:43.489Z,22.30
2018-06-27T20:56:11.958Z,22.30
2018-06-27T21:01:08.575Z,22.20
2018-06-27T21:03:37.044Z,22.10
2018-06-27T21:06:05.581Z,22.10
2018-06-27T21:08:34.019Z,22.00
2018-06-27T21:11:02.569Z,22.00
2018-06-27T21:13:31.083Z,22.00
2018-06-27T21:15:59.600Z,21.90
2018-06-27T21:25:53.001Z,21.80
2018-06-27T21:28:21.452Z,21.70
2018-06-27T21:30:50.148Z,21.70
2018-06-27T21:33:18.663Z,21.60
2018-06-27T21:35:47.101Z,21.60
2018-06-27T21:38:15.536Z,21.50
2018-06-27T21:43:12.271Z,21.40
2018-06-27T21:48:08.920Z,21.40
2018-06-27T21:50:37.504Z,21.30
2018-06-27T21:53:06.027Z,21.30
2018-06-27T21:55:34.447Z,21.20
2018-06-27T21:58:02.928Z,21.20
2018-06-27T22:00:32.855Z,21.20
2018-06-27T22:03:02.251Z,21.10
2018-06-27T22:05:30.715Z,21.10
2018-06-27T22:07:59.219Z,21.00
2018-06-27T22:10:27.898Z,21.00
2018-06-27T22:12:56.432Z,21.00
2018-06-27T22:20:21.240Z,20.90
2018-06-27T22:22:49.744Z,20.80
2018-06-27T22:30:14.594Z,20.70
2018-06-27T22:32:43.138Z,20.70
2018-06-27T22:35:11.622Z,20.70
2018-06-27T22:37:40.076Z,20.60
2018-06-27T22:40:08.588Z,20.60
2018-06-27T22:42:37.036Z,20.60
2018-06-27T22:45:05.544Z,20.50
2018-06-27T22:47:34.000Z,20.50
2018-06-27T22:50:02.499Z,20.50
2018-06-27T22:52:30.940Z,20.50
2018-06-27T22:54:59.456Z,20.40
2018-06-27T22:57:27.934Z,20.30
2018-06-27T22:59:56.451Z,20.30
2018-06-27T23:04:53.146Z,20.20
2018-06-27T23:07:21.693Z,20.20
2018-06-27T23:17:14.658Z,20.10
2018-06-27T23:19:43.145Z,20.10
2018-06-27T23:22:22.881Z,20.10
2018-06-27T23:24:51.396Z,20.10
2018-06-27T23:32:16.220Z,19.90
2018-06-27T23:34:44.876Z,19.90
2018-06-27T23:37:13.432Z,19.90
2018-06-27T23:39:41.952Z,19.90
2018-06-27T23:42:10.439Z,19.80
2018-06-27T23:44:38.904Z,19.80
2018-06-27T23:47:07.415Z,19.80
2018-06-27T23:49:35.936Z,19.70
2018-06-27T23:52:04.392Z,19.70
2018-06-27T23:57:01.360Z,19.60
2018-06-27T23:59:29.804Z,19.60
